createdAt,value
2022-12-13T00:01:50.147Z,55.70
2022-12-13T00:04:18.742Z,55.80
2022-12-13T00:06:47.101Z,55.10
2022-12-13T00:09:15.831Z,54.00
2022-12-13T00:11:43.946Z,53.50
2022-12-13T00:14:14.886Z,53.50
2022-12-13T00:16:49.494Z,53.10
2022-12-13T00:19:18.835Z,52.50
2022-12-13T00:21:47.133Z,52.40
2022-12-13T00:24:15.197Z,51.50
2022-12-13T00:26:43.337Z,52.00
2022-12-13T00:29:13.324Z,52.50
2022-12-13T00:32:00.660Z,53.20
2022-12-13T00:34:29.395Z,52.40
2022-12-13T00:36:58.951Z,52.40
2022-12-13T00:39:27.701Z,52.80
2022-12-13T00:41:55.752Z,52.60
2022-12-13T00:44:25.398Z,52.90
2022-12-13T00:46:53.347Z,53.00
2022-12-13T00:49:21.525Z,52.90
2022-12-13T00:51:49.865Z,53.00
2022-12-13T00:54:18.435Z,53.70
2022-12-13T00:56:46.355Z,53.90
2022-12-13T00:59:15.832Z,53.90
2022-12-13T01:01:47.732Z,53.40
2022-12-13T01:04:15.764Z,53.80
2022-12-13T01:06:46.052Z,53.50
2022-12-13T01:09:18.583Z,53.40
2022-12-13T01:11:49.591Z,54.10
2022-12-13T01:14:18.209Z,54.00
2022-12-13T01:16:47.667Z,53.70
2022-12-13T01:19:16.581Z,53.60
2022-12-13T01:21:44.592Z,53.70
2022-12-13T01:24:12.577Z,54.60
2022-12-13T01:26:40.521Z,55.60
2022-12-13T01:29:13.458Z,55.60
2022-12-13T01:31:42.170Z,55.00
2022-12-13T01:34:12.783Z,55.70
2022-12-13T01:36:42.785Z,54.50
2022-12-13T01:39:15.659Z,55.40
2022-12-13T01:41:45.348Z,55.60
2022-12-13T01:44:50.503Z,55.70
2022-12-13T01:47:23.598Z,56.50
2022-12-13T01:49:55.067Z,57.50
2022-12-13T01:52:23.376Z,57.50
2022-12-13T01:54:55.893Z,57.10
2022-12-13T01:57:34.004Z,56.80
2022-12-13T02:00:02.584Z,56.00
2022-12-13T02:02:35.648Z,56.00
2022-12-13T02:05:11.253Z,56.10
2022-12-13T02:07:42.123Z,55.50
2022-12-13T02:10:11.765Z,55.50
2022-12-13T02:12:41.562Z,54.50
2022-12-13T02:15:13.124Z,54.80
2022-12-13T02:18:11.646Z,55.20
2022-12-13T02:20:59.698Z,55.70
2022-12-13T02:24:09.483Z,56.00
2022-12-13T02:27:15.167Z,55.80
2022-12-13T02:30:17.879Z,55.60
2022-12-13T02:33:21.701Z,55.80
2022-12-13T02:35:57.244Z,56.00
2022-12-13T02:38:30.652Z,55.60
2022-12-13T02:41:15.301Z,55.30
2022-12-13T02:43:49.148Z,55.10
2022-12-13T02:46:22.187Z,54.30
2022-12-13T02:48:52.794Z,53.50
2022-12-13T02:51:22.761Z,53.30
2022-12-13T02:53:50.694Z,52.90
2022-12-13T02:56:18.703Z,53.40
2022-12-13T02:58:50.626Z,54.10
2022-12-13T03:01:41.207Z,54.40
2022-12-13T03:04:15.770Z,54.40
2022-12-13T03:06:54.577Z,53.90
2022-12-13T03:09:38.150Z,53.40
2022-12-13T03:12:42.118Z,53.10
2022-12-13T03:15:16.957Z,53.10
2022-12-13T03:17:50.807Z,52.80
2022-12-13T03:20:23.663Z,52.60
2022-12-13T03:22:52.193Z,52.70
2022-12-13T03:25:31.341Z,52.70
2022-12-13T03:28:01.083Z,51.70
2022-12-13T03:30:30.593Z,51.20
2022-12-13T03:33:00.327Z,51.60
2022-12-13T03:35:34.553Z,51.20
2022-12-13T03:38:12.516Z,51.00
2022-12-13T03:40:52.880Z,52.20
2022-12-13T03:43:21.770Z,51.60
2022-12-13T03:45:50.788Z,52.50
2022-12-13T03:48:22.433Z,52.70
2022-12-13T03:50:52.132Z,52.10
2022-12-13T03:53:22.389Z,51.70
2022-12-13T03:56:01.391Z,51.60
2022-12-13T03:58:34.763Z,52.00
2022-12-13T04:01:07.290Z,52.30
2022-12-13T04:03:37.775Z,52.20
2022-12-13T04:06:06.873Z,52.40
2022-12-13T04:08:35.336Z,51.60
2022-12-13T04:11:25.573Z,51.40
2022-12-13T04:13:53.518Z,51.00
2022-12-13T04:16:22.262Z,50.50
2022-12-13T04:18:51.730Z,49.90
2022-12-13T04:21:19.736Z,50.30
2022-12-13T04:23:47.797Z,50.40
2022-12-13T04:26:15.763Z,50.10
2022-12-13T04:28:44.182Z,49.50
2022-12-13T04:31:14.022Z,49.80
2022-12-13T04:33:42.060Z,50.00
2022-12-13T04:36:11.352Z,51.70
2022-12-13T04:38:39.321Z,53.10
2022-12-13T04:41:16.335Z,52.30
2022-12-13T04:43:44.663Z,51.40
2022-12-13T04:46:12.902Z,51.00
2022-12-13T04:48:40.951Z,49.90
2022-12-13T04:51:08.912Z,49.40
2022-12-13T04:53:38.390Z,49.10
2022-12-13T04:56:07.909Z,48.80
2022-12-13T04:58:38.595Z,49.60
2022-12-13T05:01:08.112Z,50.30
2022-12-13T05:03:36.532Z,51.20
2022-12-13T05:06:06.396Z,50.60
2022-12-13T05:09:00.896Z,50.40
2022-12-13T05:11:35.636Z,49.20
2022-12-13T05:14:04.090Z,49.40
2022-12-13T05:16:32.205Z,49.90
2022-12-13T05:19:00.263Z,49.20
2022-12-13T05:21:28.214Z,49.10
2022-12-13T05:23:57.486Z,49.00
2022-12-13T05:26:25.555Z,48.50
2022-12-13T05:28:53.471Z,49.10
2022-12-13T05:31:23.227Z,48.80
2022-12-13T05:33:52.373Z,48.30
2022-12-13T05:36:22.445Z,49.50
2022-12-13T05:38:50.416Z,49.30
2022-12-13T05:41:22.245Z,49.00
2022-12-13T05:43:50.208Z,48.90
2022-12-13T05:46:18.218Z,48.40
2022-12-13T05:48:46.243Z,47.70
2022-12-13T05:51:14.187Z,47.80
2022-12-13T05:53:43.454Z,48.20
2022-12-13T05:56:12.738Z,47.50
2022-12-13T05:58:54.061Z,47.60
2022-12-13T06:01:23.557Z,46.90
2022-12-13T06:03:52.699Z,46.80
2022-12-13T06:06:23.018Z,46.90
2022-12-13T06:08:51.022Z,47.20
2022-12-13T06:11:31.374Z,47.90
2022-12-13T06:14:01.611Z,47.90
2022-12-13T06:16:29.730Z,48.10
2022-12-13T06:19:04.216Z,49.30
2022-12-13T06:21:41.447Z,49.50
2022-12-13T06:24:18.160Z,49.20
2022-12-13T06:26:46.434Z,48.30
2022-12-13T06:29:24.566Z,47.90
2022-12-13T06:31:55.009Z,48.00
2022-12-13T06:34:32.126Z,47.40
2022-12-13T06:37:00.821Z,47.30
2022-12-13T06:39:32.493Z,47.40
2022-12-13T06:42:01.791Z,47.30
2022-12-13T06:44:31.186Z,47.30
2022-12-13T06:47:11.454Z,47.20
2022-12-13T06:49:43.645Z,47.50
2022-12-13T06:52:14.935Z,47.70
2022-12-13T06:54:43.569Z,48.70
2022-12-13T06:57:12.020Z,48.80
2022-12-13T06:59:42.103Z,48.10
2022-12-13T07:02:25.275Z,47.40
2022-12-13T07:04:55.553Z,47.70
2022-12-13T07:07:24.543Z,47.30
2022-12-13T07:09:52.919Z,47.20
2022-12-13T07:12:21.542Z,46.50
2022-12-13T07:14:50.880Z,46.90
2022-12-13T07:17:32.622Z,47.20
2022-12-13T07:20:07.520Z,46.60
2022-12-13T07:22:37.840Z,46.00
2022-12-13T07:25:27.020Z,45.00
2022-12-13T07:28:02.096Z,46.00
2022-12-13T07:30:32.556Z,47.30
2022-12-13T07:33:01.801Z,46.80
2022-12-13T07:35:30.157Z,47.00
2022-12-13T07:37:58.189Z,47.30
2022-12-13T07:40:28.203Z,47.50
2022-12-13T07:42:57.805Z,46.60
2022-12-13T07:45:26.685Z,46.20
2022-12-13T07:47:56.021Z,45.00
2022-12-13T07:50:25.651Z,44.30
2022-12-13T07:52:54.340Z,43.80
2022-12-13T07:55:23.451Z,43.10
2022-12-13T07:58:05.540Z,42.20
2022-12-13T08:00:33.590Z,42.90
2022-12-13T08:03:03.070Z,43.20
2022-12-13T08:05:39.032Z,43.70
2022-12-13T08:08:09.261Z,44.00
2022-12-13T08:10:37.850Z,44.00
2022-12-13T08:13:06.383Z,45.00
2022-12-13T08:15:36.782Z,44.90
2022-12-13T08:18:06.453Z,44.80
2022-12-13T08:20:34.550Z,44.20
2022-12-13T08:23:03.093Z,44.40
2022-12-13T08:25:31.736Z,44.40
2022-12-13T08:28:01.678Z,43.80
2022-12-13T08:30:31.513Z,44.50
2022-12-13T08:32:59.803Z,44.90
2022-12-13T08:35:35.282Z,45.80
2022-12-13T08:38:04.162Z,46.50
2022-12-13T08:40:32.157Z,47.50
2022-12-13T08:43:00.106Z,47.50
2022-12-13T08:45:28.652Z,47.60
2022-12-13T08:47:59.589Z,48.00
2022-12-13T08:50:28.161Z,48.30
2022-12-13T08:52:57.824Z,49.00
2022-12-13T08:55:31.579Z,50.10
2022-12-13T08:58:08.645Z,50.70
2022-12-13T09:00:38.162Z,51.30
2022-12-13T09:03:10.206Z,51.70
2022-12-13T09:05:39.050Z,51.30
2022-12-13T09:08:23.670Z,51.30
2022-12-13T09:10:59.944Z,51.00
2022-12-13T09:13:31.682Z,50.40
2022-12-13T09:16:04.039Z,49.50
2022-12-13T09:18:36.365Z,49.20
2022-12-13T09:21:10.374Z,49.30
2022-12-13T09:23:45.760Z,49.50
2022-12-13T09:26:17.264Z,48.90
2022-12-13T09:28:45.287Z,48.80
2022-12-13T09:31:15.290Z,48.80
2022-12-13T09:33:43.922Z,49.50
2022-12-13T09:36:14.114Z,49.50
2022-12-13T09:38:44.043Z,49.50
2022-12-13T09:41:20.148Z,50.00
2022-12-13T09:44:01.218Z,50.50
2022-12-13T09:46:34.295Z,50.30
2022-12-13T09:49:05.500Z,50.30
2022-12-13T09:51:46.060Z,50.00
2022-12-13T09:54:23.146Z,49.60
2022-12-13T09:56:52.438Z,48.70
2022-12-13T09:59:26.725Z,48.80
2022-12-13T10:01:55.789Z,48.80
2022-12-13T10:04:24.257Z,48.80
2022-12-13T10:06:54.161Z,48.60
2022-12-13T10:09:23.821Z,48.10
2022-12-13T10:11:53.230Z,48.20
2022-12-13T10:14:27.665Z,48.70
2022-12-13T10:16:58.770Z,48.70
2022-12-13T10:19:34.593Z,47.70
2022-12-13T10:22:04.196Z,48.40
2022-12-13T10:24:52.000Z,48.80
2022-12-13T10:27:30.455Z,49.90
2022-12-13T10:30:01.028Z,49.10
2022-12-13T10:32:29.736Z,47.80
2022-12-13T10:35:20.649Z,46.20
2022-12-13T10:37:48.933Z,45.30
2022-12-13T10:40:33.380Z,45.70
2022-12-13T10:43:23.997Z,46.20
2022-12-13T10:45:59.660Z,46.10
2022-12-13T10:48:38.581Z,45.30
2022-12-13T10:51:13.399Z,45.50
2022-12-13T10:53:49.446Z,45.30
2022-12-13T10:56:22.853Z,44.90
2022-12-13T10:59:14.997Z,45.40
2022-12-13T11:01:45.304Z,46.40
2022-12-13T11:04:27.767Z,46.60
2022-12-13T11:06:57.569Z,46.50
2022-12-13T11:09:27.941Z,46.60
2022-12-13T11:11:59.193Z,46.60
2022-12-13T11:14:32.368Z,46.60
2022-12-13T11:17:06.964Z,46.60
2022-12-13T11:19:41.089Z,46.80
2022-12-13T11:22:11.270Z,47.50
2022-12-13T11:24:42.141Z,47.80
2022-12-13T11:27:26.274Z,48.10
2022-12-13T11:30:21.985Z,47.30
2022-12-13T11:33:14.728Z,47.00
2022-12-13T11:35:54.428Z,47.00
2022-12-13T11:38:29.912Z,46.80
2022-12-13T11:41:03.931Z,46.30
2022-12-13T11:43:40.195Z,46.00
2022-12-13T11:46:16.169Z,45.20
2022-12-13T11:48:48.893Z,45.30
2022-12-13T11:51:23.895Z,44.90
2022-12-13T11:53:58.339Z,45.00
2022-12-13T11:56:28.618Z,44.90
2022-12-13T11:59:16.358Z,45.20
2022-12-13T12:01:54.098Z,45.00
2022-12-13T12:04:29.970Z,45.50
2022-12-13T12:07:24.429Z,45.90
2022-12-13T12:09:54.968Z,46.30
2022-12-13T12:12:29.941Z,46.70
2022-12-13T12:15:05.280Z,47.00
2022-12-13T12:17:44.199Z,45.60
2022-12-13T12:20:14.362Z,45.30
2022-12-13T12:23:02.913Z,45.20
2022-12-13T12:25:42.571Z,45.60
2022-12-13T12:28:18.422Z,45.60
2022-12-13T12:30:57.752Z,45.70
2022-12-13T12:33:33.715Z,46.30
2022-12-13T12:36:18.551Z,46.60
2022-12-13T12:39:11.895Z,45.90
2022-12-13T12:41:52.715Z,44.60
2022-12-13T12:44:31.367Z,44.10
2022-12-13T12:50:17.827Z,42.90
2022-12-13T12:52:58.192Z,43.40
2022-12-13T12:55:36.486Z,44.00
2022-12-13T12:58:14.115Z,44.10
2022-12-13T13:00:50.098Z,44.80
2022-12-13T13:03:23.232Z,44.80
2022-12-13T13:06:01.702Z,45.20
2022-12-13T13:08:35.756Z,44.30
2022-12-13T13:11:24.414Z,44.30
2022-12-13T13:14:02.912Z,44.30
2022-12-13T13:16:33.967Z,44.30
2022-12-13T13:19:03.781Z,44.30
2022-12-13T13:21:43.218Z,43.60
2022-12-13T13:24:23.033Z,42.80
2022-12-13T13:26:54.136Z,42.80
2022-12-13T13:29:33.663Z,43.50
2022-12-13T13:32:05.031Z,43.50
2022-12-13T13:34:37.344Z,43.80
2022-12-13T13:37:06.560Z,43.40
2022-12-13T13:39:54.490Z,43.60
2022-12-13T13:42:24.007Z,43.50
2022-12-13T13:45:01.421Z,44.10
2022-12-13T13:47:41.838Z,44.20
2022-12-13T13:50:52.333Z,43.00
2022-12-13T13:53:53.357Z,42.40
2022-12-13T13:57:05.092Z,42.50
2022-12-13T14:00:12.122Z,41.80
2022-12-13T14:03:34.249Z,41.60
2022-12-13T14:06:33.884Z,41.40
2022-12-13T14:09:50.005Z,41.70
2022-12-13T14:12:55.839Z,41.10
2022-12-13T14:15:55.374Z,40.40
2022-12-13T14:19:02.375Z,40.40
2022-12-13T14:21:38.394Z,39.70
2022-12-13T14:24:18.397Z,39.80
2022-12-13T14:27:04.338Z,39.80
2022-12-13T14:29:35.120Z,38.80
2022-12-13T14:32:26.961Z,38.50
2022-12-13T14:34:56.077Z,38.30
2022-12-13T14:37:28.663Z,38.20
2022-12-13T14:39:56.861Z,38.20
2022-12-13T14:42:29.764Z,37.90
2022-12-13T14:45:14.449Z,37.90
2022-12-13T14:47:43.982Z,37.80
2022-12-13T14:50:17.937Z,38.10
2022-12-13T14:52:48.594Z,37.30
2022-12-13T14:55:29.871Z,37.40
2022-12-13T14:58:02.518Z,37.50
2022-12-13T15:00:33.815Z,37.80
2022-12-13T15:03:04.058Z,37.50
2022-12-13T15:05:35.251Z,37.90
2022-12-13T15:08:10.269Z,37.50
2022-12-13T15:10:40.766Z,36.90
2022-12-13T15:13:25.285Z,37.50
2022-12-13T15:16:01.109Z,37.50
2022-12-13T15:18:40.229Z,36.90
2022-12-13T15:21:22.373Z,37.40
2022-12-13T15:24:03.871Z,37.50
2022-12-13T15:26:38.367Z,37.30
2022-12-13T15:29:10.684Z,37.20
2022-12-13T15:31:39.970Z,37.50
2022-12-13T15:34:34.872Z,37.40
2022-12-13T15:37:06.369Z,36.90
2022-12-13T15:39:40.706Z,37.20
2022-12-13T15:42:21.479Z,37.30
2022-12-13T15:44:56.387Z,37.50
2022-12-13T15:47:27.758Z,37.50
2022-12-13T15:49:58.289Z,37.00
2022-12-13T15:52:33.034Z,37.10
2022-12-13T15:55:03.268Z,36.60
2022-12-13T15:57:33.111Z,37.30
2022-12-13T16:00:19.605Z,37.80
2022-12-13T16:03:01.265Z,38.40
2022-12-13T16:05:39.472Z,39.00
2022-12-13T16:08:13.834Z,39.30
2022-12-13T16:10:47.896Z,39.70
2022-12-13T16:13:26.426Z,40.50
2022-12-13T16:16:00.409Z,41.10
2022-12-13T16:18:46.072Z,41.30
2022-12-13T16:21:14.665Z,41.00
2022-12-13T16:23:48.849Z,41.20
2022-12-13T16:26:23.389Z,41.10
2022-12-13T16:28:51.472Z,40.70
2022-12-13T16:31:23.946Z,39.80
2022-12-13T16:33:52.400Z,40.20
2022-12-13T16:36:23.706Z,40.20
2022-12-13T16:38:52.344Z,40.00
2022-12-13T16:41:21.952Z,39.80
2022-12-13T16:43:55.718Z,39.70
2022-12-13T16:47:12.459Z,40.40
2022-12-13T16:49:20.913Z,39.40
2022-12-13T16:51:51.854Z,38.70
2022-12-13T16:54:21.514Z,38.00
2022-12-13T16:56:49.898Z,37.70
2022-12-13T16:59:19.393Z,37.80
2022-12-13T17:01:50.173Z,38.20
2022-12-13T17:04:21.423Z,38.60
2022-12-13T17:06:50.880Z,38.10
2022-12-13T17:09:19.637Z,38.20
2022-12-13T17:11:47.690Z,38.00
2022-12-13T17:14:15.721Z,37.90
2022-12-13T17:16:43.910Z,37.90
2022-12-13T17:19:17.264Z,37.70
2022-12-13T17:21:45.298Z,37.50
2022-12-13T17:24:13.580Z,37.20
2022-12-13T17:26:54.899Z,37.20
2022-12-13T17:29:24.437Z,36.70
2022-12-13T17:31:53.084Z,36.00
2022-12-13T17:34:22.678Z,36.20
2022-12-13T17:36:50.637Z,36.60
2022-12-13T17:39:18.808Z,36.40
2022-12-13T17:41:55.318Z,36.60
2022-12-13T17:44:24.684Z,37.20
2022-12-13T17:46:54.388Z,38.10
2022-12-13T17:49:24.799Z,37.40
2022-12-13T17:51:54.000Z,37.40
2022-12-13T17:54:25.816Z,37.30
2022-12-13T17:56:54.376Z,37.10
2022-12-13T17:59:23.134Z,36.80
2022-12-13T18:01:52.066Z,36.60
2022-12-13T18:04:20.546Z,36.50
2022-12-13T18:06:51.291Z,35.80
2022-12-13T18:09:19.407Z,35.90
2022-12-13T18:11:47.841Z,35.80
2022-12-13T18:14:15.834Z,35.60
2022-12-13T18:16:43.829Z,35.20
2022-12-13T18:19:14.163Z,35.40
2022-12-13T18:21:43.091Z,35.50
2022-12-13T18:24:13.344Z,35.60
2022-12-13T18:26:41.384Z,35.20
2022-12-13T18:29:12.274Z,34.90
2022-12-13T18:31:41.040Z,35.00
2022-12-13T18:34:12.375Z,35.20
2022-12-13T18:36:40.597Z,35.10
2022-12-13T18:39:08.690Z,35.30
2022-12-13T18:41:37.963Z,35.50
2022-12-13T18:44:08.047Z,35.30
2022-12-13T18:46:43.399Z,35.30
2022-12-13T18:49:14.034Z,35.80
2022-12-13T18:51:41.982Z,35.00
2022-12-13T18:54:10.057Z,35.00
2022-12-13T18:56:39.361Z,35.80
2022-12-13T18:59:07.615Z,35.90
2022-12-13T19:01:35.743Z,36.30
2022-12-13T19:04:05.039Z,36.40
2022-12-13T19:06:33.109Z,36.70
2022-12-13T19:09:01.276Z,36.40
2022-12-13T19:11:29.881Z,36.40
2022-12-13T19:13:59.202Z,36.30
2022-12-13T19:16:27.664Z,36.50
2022-12-13T19:18:55.912Z,36.20
2022-12-13T19:21:25.052Z,36.00
2022-12-13T19:23:57.873Z,35.10
2022-12-13T19:26:27.423Z,34.60
2022-12-13T19:28:57.305Z,35.20
2022-12-13T19:31:30.936Z,35.30
2022-12-13T19:34:01.261Z,34.80
2022-12-13T19:36:29.314Z,34.90
2022-12-13T19:38:57.280Z,35.30
2022-12-13T19:41:25.704Z,35.20
2022-12-13T19:43:54.119Z,35.20
2022-12-13T19:46:23.057Z,35.30
2022-12-13T19:48:52.484Z,35.30
2022-12-13T19:51:21.403Z,35.00
2022-12-13T19:53:49.725Z,34.60
2022-12-13T19:56:20.519Z,34.30
2022-12-13T19:58:49.463Z,34.30
2022-12-13T20:01:18.890Z,34.70
2022-12-13T20:03:48.004Z,34.90
2022-12-13T20:06:19.337Z,34.30
2022-12-13T20:08:47.680Z,34.00
2022-12-13T20:11:19.232Z,34.40
2022-12-13T20:13:47.863Z,35.10
2022-12-13T20:16:18.382Z,35.00
2022-12-13T20:18:46.948Z,35.00
2022-12-13T20:21:15.947Z,34.90
2022-12-13T20:23:49.282Z,34.60
2022-12-13T20:26:20.336Z,34.10
2022-12-13T20:28:48.585Z,34.20
2022-12-13T20:31:19.158Z,34.50
2022-12-13T20:33:47.586Z,34.80
2022-12-13T20:36:26.084Z,35.10
2022-12-13T20:38:57.447Z,35.80
2022-12-13T20:41:30.960Z,35.90
2022-12-13T20:44:00.196Z,35.60
2022-12-13T20:46:29.751Z,35.30
2022-12-13T20:48:59.129Z,35.40
2022-12-13T20:51:29.353Z,35.10
2022-12-13T20:53:58.682Z,35.50
2022-12-13T20:56:31.681Z,35.60
2022-12-13T20:58:59.660Z,35.00
2022-12-13T21:01:31.918Z,35.50
2022-12-13T21:04:01.252Z,35.20
2022-12-13T21:06:29.855Z,35.70
2022-12-13T21:09:02.841Z,35.80
2022-12-13T21:11:33.103Z,36.00
2022-12-13T21:14:07.926Z,36.00
2022-12-13T21:16:42.764Z,36.00
2022-12-13T21:19:14.145Z,35.90
2022-12-13T21:21:42.221Z,35.70
2022-12-13T21:24:14.739Z,35.70
2022-12-13T21:26:43.875Z,35.70
2022-12-13T21:29:13.546Z,35.80
2022-12-13T21:31:48.920Z,35.40
2022-12-13T21:34:18.283Z,35.40
2022-12-13T21:36:50.777Z,35.20
2022-12-13T21:39:22.713Z,35.10
2022-12-13T21:41:50.732Z,36.00
2022-12-13T21:44:19.235Z,36.20
2022-12-13T21:49:39.296Z,35.90
2022-12-13T21:52:08.433Z,35.60
2022-12-13T21:54:37.706Z,35.80
2022-12-13T21:57:23.462Z,36.10
2022-12-13T21:59:51.387Z,36.40
2022-12-13T22:02:20.109Z,36.40
2022-12-13T22:04:49.784Z,35.70
2022-12-13T22:07:19.432Z,35.70
2022-12-13T22:09:51.230Z,35.50
2022-12-13T22:12:22.300Z,35.30
2022-12-13T22:14:51.030Z,35.40
2022-12-13T22:17:24.968Z,34.80
2022-12-13T22:19:55.442Z,35.10
2022-12-13T22:22:25.078Z,35.50
2022-12-13T22:24:54.828Z,35.40
2022-12-13T22:27:25.146Z,35.90
2022-12-13T22:29:53.766Z,35.80
2022-12-13T22:32:22.344Z,35.80
2022-12-13T22:34:50.552Z,36.10
2022-12-13T22:37:18.612Z,35.60
2022-12-13T22:39:46.819Z,35.00
2022-12-13T22:42:16.412Z,35.20
2022-12-13T22:44:44.687Z,36.00
2022-12-13T22:47:12.613Z,36.10
2022-12-13T22:49:40.974Z,36.60
2022-12-13T22:52:09.582Z,37.50
2022-12-13T22:54:37.596Z,37.10
2022-12-13T22:57:05.619Z,37.40
2022-12-13T22:59:34.946Z,36.80
2022-12-13T23:02:03.924Z,36.60
2022-12-13T23:04:34.846Z,36.20
2022-12-13T23:07:02.808Z,36.00
2022-12-13T23:09:31.972Z,36.60
2022-12-13T23:12:17.475Z,36.80
2022-12-13T23:14:46.797Z,36.90
2022-12-13T23:17:14.736Z,36.90
2022-12-13T23:19:50.865Z,37.00
2022-12-13T23:22:21.895Z,36.90
2022-12-13T23:24:50.276Z,36.40
2022-12-13T23:27:18.749Z,36.90
2022-12-13T23:29:48.149Z,36.50
2022-12-13T23:32:16.140Z,36.40
2022-12-13T23:34:44.124Z,36.20
2022-12-13T23:37:12.052Z,36.60
2022-12-13T23:39:40.037Z,36.70
2022-12-13T23:42:08.313Z,36.20
2022-12-13T23:44:36.533Z,36.90
2022-12-13T23:47:06.098Z,37.30
2022-12-13T23:49:34.057Z,37.30
2022-12-13T23:52:02.021Z,37.90
2022-12-13T23:54:29.943Z,37.50
2022-12-13T23:56:57.935Z,37.20
2022-12-13T23:59:28.587Z,38.30
